createdAt,value
2023-02-03T00:00:40.224Z,101012.66
2023-02-03T00:05:37.074Z,101015.22
2023-02-03T00:10:38.352Z,101001.19
2023-02-03T00:15:34.854Z,100982.69
2023-02-03T00:20:31.235Z,100978.25
2023-02-03T00:25:27.901Z,100982.44
2023-02-03T00:30:24.656Z,100969.28
2023-02-03T00:35:21.524Z,100958.59
2023-02-03T00:40:18.306Z,100966.53
2023-02-03T00:45:15.163Z,100962.03
2023-02-03T00:50:11.788Z,100965.59
2023-02-03T00:55:08.607Z,100956.72
2023-02-03T01:00:06.244Z,100969.00
2023-02-03T01:05:02.610Z,100969.88
2023-02-03T01:09:59.074Z,100979.44
2023-02-03T01:14:55.419Z,100980.31
2023-02-03T01:19:52.885Z,100966.97
2023-02-03T01:24:49.235Z,100959.13
2023-02-03T01:29:45.970Z,100966.03
2023-02-03T01:34:42.277Z,100963.22
2023-02-03T01:39:38.585Z,100967.75
2023-02-03T01:44:51.387Z,100966.63
2023-02-03T01:50:06.760Z,100946.22
2023-02-03T01:55:07.939Z,100935.81
2023-02-03T02:00:07.047Z,100920.84
2023-02-03T02:05:13.681Z,100921.63
2023-02-03T02:10:10.810Z,100913.69
2023-02-03T02:15:07.764Z,100896.09
2023-02-03T02:20:28.859Z,100863.44
2023-02-03T02:25:42.296Z,100843.31
2023-02-03T02:30:53.990Z,100868.75
2023-02-03T02:36:07.077Z,100834.25
2023-02-03T02:41:09.828Z,100824.59
2023-02-03T02:46:12.576Z,100830.28
2023-02-03T02:51:12.986Z,100852.34
2023-02-03T02:56:13.722Z,100870.03
2023-02-03T03:01:11.589Z,100875.13
2023-02-03T03:06:14.192Z,100878.56
2023-02-03T03:11:11.249Z,100875.91
2023-02-03T03:16:09.842Z,100872.28
2023-02-03T03:21:06.763Z,100832.84
2023-02-03T03:26:16.716Z,100845.06
2023-02-03T03:31:13.282Z,100833.53
2023-02-03T03:36:30.562Z,100828.50
2023-02-03T03:41:38.293Z,100825.00
2023-02-03T03:46:46.167Z,100830.28
2023-02-03T03:51:53.762Z,100834.47
2023-02-03T03:57:05.488Z,100807.22
2023-02-03T04:02:04.790Z,100813.47
2023-02-03T04:07:01.403Z,100820.56
2023-02-03T04:12:05.725Z,100805.53
2023-02-03T04:17:02.074Z,100803.81
2023-02-03T04:21:58.380Z,100815.25
2023-02-03T04:26:55.072Z,100808.56
2023-02-03T04:31:51.418Z,100806.75
2023-02-03T04:36:47.823Z,100806.88
2023-02-03T04:41:44.114Z,100801.56
2023-02-03T04:46:40.484Z,100805.16
2023-02-03T04:51:36.788Z,100802.31
2023-02-03T04:56:33.094Z,100792.75
2023-02-03T05:01:29.521Z,100781.41
2023-02-03T05:06:28.855Z,100771.50
2023-02-03T05:11:25.335Z,100758.53
2023-02-03T05:16:21.974Z,100757.41
2023-02-03T05:21:18.897Z,100748.59
2023-02-03T05:26:15.265Z,100757.28
2023-02-03T05:31:11.856Z,100770.53
2023-02-03T05:36:09.108Z,100764.09
2023-02-03T05:41:24.086Z,100737.63
2023-02-03T05:46:20.475Z,100737.06
2023-02-03T05:51:16.840Z,100755.50
2023-02-03T05:56:13.224Z,100753.50
2023-02-03T06:01:11.643Z,100768.47
2023-02-03T06:06:07.984Z,100770.53
2023-02-03T06:11:04.504Z,100760.78
2023-02-03T06:16:00.965Z,100774.97
2023-02-03T06:20:57.308Z,100769.53
2023-02-03T06:25:53.729Z,100773.94
2023-02-03T06:30:51.713Z,100784.97
2023-02-03T06:35:48.183Z,100790.44
2023-02-03T06:40:47.229Z,100794.88
2023-02-03T06:45:47.350Z,100786.84
2023-02-03T06:50:47.533Z,100793.09
2023-02-03T06:55:44.883Z,100802.91
2023-02-03T07:00:41.265Z,100815.38
2023-02-03T07:05:37.822Z,100823.41
2023-02-03T07:10:34.173Z,100824.44
2023-02-03T07:15:30.649Z,100821.00
2023-02-03T07:20:29.074Z,100835.09
2023-02-03T07:25:26.285Z,100828.94
2023-02-03T07:30:23.527Z,100820.16
2023-02-03T07:35:20.450Z,100827.84
2023-02-03T07:40:17.391Z,100840.06
2023-02-03T07:45:15.807Z,100842.59
2023-02-03T07:50:12.867Z,100819.72
2023-02-03T07:55:09.952Z,100820.31
2023-02-03T08:00:06.875Z,100822.22
2023-02-03T08:05:03.364Z,100835.44
2023-02-03T08:09:59.740Z,100841.47
2023-02-03T08:14:56.209Z,100856.44
2023-02-03T08:19:52.621Z,100864.19
2023-02-03T08:24:49.282Z,100867.69
2023-02-03T08:29:46.244Z,100876.31
2023-02-03T08:34:42.712Z,100871.88
2023-02-03T08:39:39.572Z,100877.09
2023-02-03T08:44:36.241Z,100878.69
2023-02-03T08:49:33.172Z,100880.16
2023-02-03T08:54:29.572Z,100884.28
2023-02-03T08:59:26.195Z,100864.56
2023-02-03T09:04:24.918Z,100853.72
2023-02-03T09:09:22.176Z,100827.06
2023-02-03T09:14:18.597Z,100833.69
2023-02-03T09:19:15.024Z,100826.16
2023-02-03T09:24:11.460Z,100830.31
2023-02-03T09:29:07.879Z,100817.84
2023-02-03T09:34:04.310Z,100813.31
2023-02-03T09:39:00.927Z,100797.22
2023-02-03T09:44:11.589Z,100796.66
2023-02-03T09:49:37.491Z,100785.13
2023-02-03T09:54:56.991Z,100760.91
2023-02-03T09:59:56.181Z,100763.47
2023-02-03T10:05:15.572Z,100761.56
2023-02-03T10:10:23.870Z,100767.53
2023-02-03T10:15:48.015Z,100725.50
2023-02-03T10:20:51.277Z,100767.34
2023-02-03T10:25:57.695Z,100775.66
2023-02-03T10:31:08.587Z,100800.47
2023-02-03T10:36:33.218Z,100815.41
2023-02-03T10:41:31.318Z,100797.84
2023-02-03T10:46:33.388Z,100800.75
2023-02-03T10:51:36.950Z,100791.28
2023-02-03T10:56:37.540Z,100784.38
2023-02-03T11:01:49.311Z,100780.50
2023-02-03T11:06:56.261Z,100796.69
2023-02-03T11:12:14.505Z,100801.59
2023-02-03T11:17:18.650Z,100793.09
2023-02-03T11:22:28.460Z,100782.78
2023-02-03T11:27:27.663Z,100795.34
2023-02-03T11:32:36.568Z,100790.00
2023-02-03T11:37:40.615Z,100788.97
2023-02-03T11:42:41.313Z,100790.56
2023-02-03T11:47:37.678Z,100783.34
2023-02-03T11:52:55.415Z,100783.47
2023-02-03T11:58:35.355Z,100729.34
2023-02-03T12:03:49.331Z,100800.41
2023-02-03T12:09:02.901Z,100818.72
2023-02-03T12:14:41.885Z,100831.53
2023-02-03T12:20:00.400Z,100836.84
2023-02-03T12:25:02.879Z,100845.53
2023-02-03T12:30:12.434Z,100840.69
2023-02-03T12:35:19.663Z,100844.97
2023-02-03T12:40:29.190Z,100860.97
2023-02-03T12:45:31.091Z,100858.97
2023-02-03T12:50:35.247Z,100844.75
2023-02-03T12:55:41.205Z,100842.75
2023-02-03T13:00:51.227Z,100846.94
2023-02-03T13:05:59.759Z,100864.56
2023-02-03T13:10:59.171Z,100860.47
2023-02-03T13:15:57.194Z,100856.09
2023-02-03T13:20:54.523Z,100835.09
2023-02-03T13:25:59.355Z,100833.56
2023-02-03T13:31:17.580Z,100842.97
2023-02-03T13:36:41.366Z,100847.97
2023-02-03T13:41:46.088Z,100840.41
2023-02-03T13:46:42.974Z,100838.13
2023-02-03T13:51:46.172Z,100873.97
2023-02-03T13:56:42.663Z,100879.63
2023-02-03T14:01:40.861Z,100883.53
2023-02-03T14:06:39.972Z,100863.16
2023-02-03T14:11:36.262Z,100894.69
2023-02-03T14:16:42.773Z,100882.56
2023-02-03T14:21:54.978Z,100894.59
2023-02-03T14:26:54.051Z,100892.16
2023-02-03T14:31:59.517Z,100916.38
2023-02-03T14:36:56.343Z,100935.50
2023-02-03T14:42:22.807Z,100929.34
2023-02-03T14:47:44.946Z,100943.16
2023-02-03T14:52:56.765Z,100956.88
2023-02-03T14:57:59.741Z,100974.09
2023-02-03T15:03:11.451Z,100981.84
2023-02-03T15:08:35.579Z,100996.75
2023-02-03T15:13:32.149Z,101006.69
2023-02-03T15:18:37.404Z,101011.47
2023-02-03T15:23:42.040Z,101019.78
2023-02-03T15:28:38.350Z,101024.56
2023-02-03T15:33:37.271Z,101018.69
2023-02-03T15:38:43.352Z,101039.28
2023-02-03T15:43:44.233Z,101032.03
2023-02-03T15:48:58.711Z,101040.41
2023-02-03T15:54:00.615Z,101039.31
2023-02-03T15:58:58.749Z,101045.53
2023-02-03T16:03:57.503Z,101050.16
2023-02-03T16:08:54.733Z,101049.31
2023-02-03T16:13:51.171Z,101067.25
2023-02-03T16:19:15.194Z,101083.22
2023-02-03T16:24:33.412Z,101087.66
2023-02-03T16:29:48.359Z,101098.84
2023-02-03T16:35:04.067Z,101107.28
2023-02-03T16:40:18.913Z,101109.25
2023-02-03T16:45:36.791Z,101091.75
2023-02-03T16:50:52.760Z,101105.28
2023-02-03T16:55:51.815Z,101107.19
2023-02-03T17:00:51.477Z,101109.84
2023-02-03T17:05:49.027Z,101099.72
2023-02-03T17:10:46.327Z,101098.09
2023-02-03T17:15:45.547Z,101093.50
2023-02-03T17:20:42.799Z,101088.28
2023-02-03T17:25:39.908Z,101110.03
2023-02-03T17:30:36.364Z,101118.44
2023-02-03T17:35:32.701Z,101124.69
2023-02-03T17:56:27.868Z,101175.22
2023-02-03T18:01:25.922Z,101168.38
2023-02-03T18:06:24.688Z,101171.28
2023-02-03T18:11:20.976Z,101174.16
2023-02-03T18:16:22.278Z,101179.72
2023-02-03T18:21:20.701Z,101196.75
2023-02-03T18:26:19.669Z,101200.38
2023-02-03T18:31:17.560Z,101213.59
2023-02-03T18:36:16.539Z,101217.06
2023-02-03T18:41:21.385Z,101234.00
2023-02-03T18:46:32.162Z,101238.25
2023-02-03T18:51:28.638Z,101240.03
2023-02-03T18:56:27.645Z,101235.06
2023-02-03T19:01:26.462Z,101251.69
2023-02-03T19:06:24.205Z,101272.94
2023-02-03T19:11:20.525Z,101285.13
2023-02-03T19:16:18.046Z,101292.31
2023-02-03T19:21:14.711Z,101300.78
2023-02-03T19:26:12.051Z,101313.25
2023-02-03T19:31:13.897Z,101324.22
2023-02-03T19:36:11.127Z,101336.22
2023-02-03T19:41:08.646Z,101337.88
2023-02-03T19:46:05.255Z,101335.38
2023-02-03T19:51:01.849Z,101338.94
2023-02-03T19:55:58.236Z,101337.09
2023-02-03T20:00:54.602Z,101338.19
2023-02-03T20:05:52.957Z,101341.06
2023-02-03T20:10:49.722Z,101367.41
2023-02-03T20:15:47.472Z,101353.47
2023-02-03T20:20:43.871Z,101366.13
2023-02-03T20:25:40.187Z,101357.84
2023-02-03T20:30:36.668Z,101375.28
2023-02-03T20:35:33.222Z,101374.09
2023-02-03T20:40:29.890Z,101393.63
2023-02-03T20:45:26.461Z,101398.06
2023-02-03T20:50:31.692Z,101400.84
2023-02-03T20:55:30.811Z,101396.34
2023-02-03T21:00:27.792Z,101396.44
2023-02-03T21:05:32.057Z,101401.91
2023-02-03T21:10:28.688Z,101417.56
2023-02-03T21:15:28.363Z,101416.06
2023-02-03T21:20:31.138Z,101424.25
2023-02-03T21:25:33.556Z,101435.19
2023-02-03T21:30:34.643Z,101437.41
2023-02-03T21:35:37.231Z,101450.94
2023-02-03T21:40:34.737Z,101435.41
2023-02-03T21:45:41.497Z,101443.28
2023-02-03T21:50:40.886Z,101447.91
2023-02-03T21:55:40.230Z,101461.78
2023-02-03T22:00:43.198Z,101452.22
2023-02-03T22:05:39.497Z,101471.84
2023-02-03T22:10:35.969Z,101494.72
2023-02-03T22:15:32.257Z,101497.50
2023-02-03T22:20:28.829Z,101502.97
2023-02-03T22:25:25.379Z,101503.56
2023-02-03T22:30:21.731Z,101514.38
2023-02-03T22:35:18.080Z,101517.06
2023-02-03T22:40:14.450Z,101507.38
2023-02-03T22:45:11.560Z,101510.28
2023-02-03T22:50:10.403Z,101503.41
2023-02-03T22:55:07.185Z,101504.44
2023-02-03T23:00:12.296Z,101536.03
2023-02-03T23:05:10.068Z,101524.56
2023-02-03T23:10:09.331Z,101529.25
2023-02-03T23:15:05.918Z,101533.16
2023-02-03T23:20:03.450Z,101541.88
2023-02-03T23:25:00.360Z,101557.72
2023-02-03T23:29:56.849Z,101573.44
2023-02-03T23:35:12.074Z,101578.50
2023-02-03T23:40:09.627Z,101595.13
2023-02-03T23:45:08.455Z,101574.88
2023-02-03T23:50:05.183Z,101599.63
2023-02-03T23:55:04.247Z,101596.28
